Pagrindinis puslapis
METAR-TAF:

METAR-TAF

Oro uostai :

Iwo Jima, Japonija

platuma: 24-47N, ilguma: 141-19E, Aukštis: 113 m

Dabartinis oras

Ataskaita buvo paskelbta 58 minutes, ne 09:00 UTC
Vėjas 6 kt iš Pietvakarių
Temperatūra 28°C
Drėgmė 79%
Slėgis 1013 hPa
Matomumas 10 km arba daugiau
Išsisklaidę debesys ne aukštis 1500 ft
Su prošvaistėmis
Liūtis kaimynystėje

METAR: RJAW 220900Z 22006KT 9999 VCSH SCT015 BKN/// 28/24 Q1013 RMK 4CU015 A2993 WIND BY EQPT/25

Laikas: 18:58 (09:58 UTC)


TAF: trūkstamas

Orai ataskaitas ir orų prognozės (METAR, TAF).

turimą stotys yra geltonos ir raudonos taškus žemėlapyje.

Perkelti pele per norėdami pamatyti stoties vardą.

Tada spustelėkite, norėdami matyti oro stebėjimo ir prognozės.

Norėdami pakeisti žemėlapį: spustelėkite ant žalios mygtukų su juodo kryžiaus žemyn,; žalią mygtuką su brūkšneliu, jei norite nutolinti; arba žalių rodyklių gretimoms žemėlapius.


METAR-TAF: